createdAt,value
2019-04-13T08:01:56.569Z,97.10
2019-04-13T08:04:17.846Z,96.30
2019-04-13T08:06:46.581Z,95.60
2019-04-13T08:09:15.398Z,95.30
2019-04-13T08:11:44.129Z,95.80
2019-04-13T08:14:20.070Z,95.50
2019-04-13T08:16:48.901Z,95.20
2019-04-13T08:19:18.456Z,95.70
2019-04-13T08:21:47.201Z,94.80
2019-04-13T08:24:16.024Z,95.00
2019-04-13T08:26:46.514Z,94.50
2019-04-13T08:29:15.313Z,94.80
2019-04-13T08:31:44.081Z,93.80
2019-04-13T08:34:12.830Z,94.40
2019-04-13T08:36:41.577Z,93.60
2019-04-13T08:39:10.893Z,93.10
2019-04-13T08:41:40.893Z,93.50
2019-04-13T08:44:09.639Z,92.80
2019-04-13T08:46:38.407Z,92.80
2019-04-13T08:49:07.162Z,92.90
2019-04-13T08:51:35.935Z,91.40
2019-04-13T08:54:04.826Z,92.40
2019-04-13T08:56:33.582Z,92.80
2019-04-13T08:59:02.579Z,92.50
2019-04-13T09:01:31.385Z,91.70
2019-04-13T09:04:00.246Z,91.20
2019-04-13T09:06:29.054Z,91.20
2019-04-13T09:09:02.604Z,91.30
2019-04-13T09:11:28.871Z,91.80
2019-04-13T09:13:58.478Z,91.70
2019-04-13T09:16:28.902Z,91.00
2019-04-13T09:19:21.074Z,90.10
2019-04-13T09:21:57.725Z,90.00
2019-04-13T09:24:26.664Z,90.60
2019-04-13T09:26:55.397Z,89.50
2019-04-13T09:29:24.242Z,88.80
2019-04-13T09:31:52.993Z,88.20
2019-04-13T09:34:32.896Z,88.60
2019-04-13T09:36:52.229Z,86.90
2019-04-13T09:39:21.994Z,87.90
2019-04-13T09:41:51.320Z,86.60
2019-04-13T09:44:31.067Z,85.10
2019-04-13T09:47:01.191Z,84.50
2019-04-13T09:49:30.213Z,85.40
2019-04-13T09:52:00.230Z,84.80
2019-04-13T09:54:30.013Z,82.20
2019-04-13T09:56:58.825Z,79.60
2019-04-13T09:59:27.619Z,81.10
2019-04-13T10:01:56.836Z,79.80
2019-04-13T10:04:25.597Z,79.90
2019-04-13T10:06:54.453Z,80.20
2019-04-13T10:09:23.207Z,75.50
2019-04-13T10:12:14.209Z,77.00
2019-04-13T10:15:36.701Z,75.80
2019-04-13T10:18:13.522Z,72.50
2019-04-13T10:20:42.370Z,73.40
2019-04-13T10:23:11.254Z,72.20
2019-04-13T10:25:40.102Z,73.50
2019-04-13T10:28:08.926Z,72.90
2019-04-13T10:30:38.017Z,71.40
2019-04-13T10:33:07.055Z,71.70
2019-04-13T10:35:35.887Z,70.20
2019-04-13T10:38:04.693Z,71.60
2019-04-13T10:40:33.769Z,74.00
2019-04-13T10:43:02.514Z,71.00
2019-04-13T10:45:59.577Z,71.00
2019-04-13T10:48:37.930Z,70.60
2019-04-13T10:51:20.442Z,71.80
2019-04-13T10:53:50.076Z,71.70
2019-04-13T10:56:19.448Z,71.30
2019-04-13T10:58:48.974Z,70.60
2019-04-13T11:01:18.248Z,70.80
2019-04-13T11:03:49.567Z,70.50
2019-04-13T11:06:19.228Z,69.20
2019-04-13T11:08:51.491Z,69.70
2019-04-13T11:11:21.484Z,70.70
2019-04-13T11:13:51.088Z,70.20
2019-04-13T11:16:20.623Z,69.50
2019-04-13T11:18:50.471Z,67.90
2019-04-13T11:21:19.948Z,68.50
2019-04-13T11:23:49.337Z,68.20
2019-04-13T11:26:18.886Z,70.00
2019-04-13T11:28:48.528Z,68.60
2019-04-13T11:31:22.797Z,68.80
2019-04-13T11:33:50.026Z,68.90
2019-04-13T11:36:19.895Z,70.90
2019-04-13T11:38:49.456Z,70.40
2019-04-13T11:41:36.685Z,67.60
2019-04-13T11:44:31.969Z,69.40
2019-04-13T11:47:07.009Z,69.60
2019-04-13T11:49:36.517Z,68.70
2019-04-13T11:52:04.140Z,67.50
2019-04-13T11:54:33.970Z,68.70
2019-04-13T11:57:03.696Z,67.30
2019-04-13T11:59:32.962Z,68.50
2019-04-13T12:02:21.552Z,68.70
2019-04-13T12:05:18.787Z,67.70
2019-04-13T12:08:03.309Z,66.40
2019-04-13T12:11:07.476Z,67.50
2019-04-13T12:13:43.904Z,67.30
2019-04-13T12:16:48.111Z,67.80
2019-04-13T12:19:23.675Z,67.60
2019-04-13T12:22:00.542Z,68.90
2019-04-13T12:24:34.374Z,69.20
2019-04-13T12:27:03.776Z,68.80
2019-04-13T12:29:33.183Z,69.20
2019-04-13T12:32:04.692Z,68.40
2019-04-13T12:34:37.293Z,69.20
2019-04-13T12:37:09.174Z,70.00
2019-04-13T12:39:40.428Z,70.10
2019-04-13T12:42:09.339Z,70.60
2019-04-13T12:44:39.212Z,70.60
2019-04-13T12:47:10.869Z,70.50
2019-04-13T12:49:40.315Z,70.90
2019-04-13T12:52:11.527Z,71.90
2019-04-13T12:54:41.139Z,71.80
2019-04-13T12:57:15.698Z,72.50
2019-04-13T12:59:41.995Z,71.70
2019-04-13T13:02:24.855Z,71.60
2019-04-13T13:05:14.960Z,71.20
2019-04-13T13:07:43.839Z,70.90
2019-04-13T13:10:15.425Z,71.50
2019-04-13T13:12:45.631Z,71.40
2019-04-13T13:15:14.229Z,71.30
2019-04-13T13:17:42.991Z,71.40
2019-04-13T13:20:11.922Z,71.20
2019-04-13T13:22:41.557Z,71.60
2019-04-13T13:25:13.745Z,72.30
2019-04-13T13:27:41.676Z,71.40
2019-04-13T13:30:10.920Z,71.60
2019-04-13T13:32:39.689Z,70.60
2019-04-13T13:35:08.896Z,70.80
2019-04-13T13:37:38.502Z,70.60
2019-04-13T13:40:08.653Z,69.20
2019-04-13T13:42:38.544Z,68.80
2019-04-13T13:45:08.100Z,68.60
2019-04-13T13:47:37.167Z,70.00
2019-04-13T13:50:07.482Z,70.30
2019-04-13T13:52:38.042Z,70.10
2019-04-13T13:55:07.704Z,71.20
2019-04-13T13:57:38.832Z,71.30
2019-04-13T14:00:10.287Z,70.60
2019-04-13T14:02:39.345Z,71.60
2019-04-13T14:05:08.376Z,70.10
2019-04-13T14:07:37.206Z,71.30
2019-04-13T14:10:14.181Z,71.30
2019-04-13T14:12:43.399Z,71.00
2019-04-13T14:15:13.583Z,71.90
2019-04-13T14:17:42.327Z,72.20
2019-04-13T14:20:11.917Z,72.10
2019-04-13T14:22:40.765Z,72.10
2019-04-13T14:25:10.369Z,72.30
2019-04-13T14:27:39.483Z,72.60
2019-04-13T14:30:09.141Z,73.10
2019-04-13T14:32:38.549Z,72.90
2019-04-13T14:35:07.938Z,72.90
2019-04-13T14:37:37.042Z,73.20
2019-04-13T14:40:06.731Z,73.10
2019-04-13T14:42:35.862Z,73.10
2019-04-13T14:45:05.543Z,73.20
2019-04-13T14:47:35.834Z,73.60
2019-04-13T14:50:05.503Z,73.30
2019-04-13T14:52:34.269Z,74.00
2019-04-13T14:55:03.017Z,74.00
2019-04-13T14:57:31.766Z,74.50
2019-04-13T15:00:00.595Z,75.30
2019-04-13T15:02:29.430Z,75.60
2019-04-13T15:04:58.666Z,76.00
2019-04-13T15:07:27.430Z,76.00
2019-04-13T15:09:56.209Z,77.20
2019-04-13T15:12:24.997Z,75.90
2019-04-13T15:14:54.618Z,76.50
2019-04-13T15:17:23.870Z,76.40
2019-04-13T15:20:06.789Z,75.80
2019-04-13T15:22:25.775Z,76.70
2019-04-13T15:24:56.769Z,76.40
2019-04-13T15:27:25.354Z,76.50
2019-04-13T15:29:54.535Z,76.90
2019-04-13T15:32:27.149Z,76.90
2019-04-13T15:34:53.878Z,76.90
2019-04-13T15:37:23.503Z,77.50
2019-04-13T15:39:53.306Z,77.40
2019-04-13T15:42:33.316Z,77.20
2019-04-13T15:44:55.273Z,76.70
2019-04-13T15:47:27.169Z,77.00
2019-04-13T15:49:54.854Z,77.30
2019-04-13T15:52:24.323Z,77.90
2019-04-13T15:54:53.717Z,77.90
2019-04-13T15:57:22.628Z,77.20
2019-04-13T15:59:52.158Z,77.20
2019-04-13T16:02:21.286Z,77.00
2019-04-13T16:04:51.679Z,77.00
2019-04-13T16:07:20.616Z,77.20
2019-04-13T16:10:09.569Z,77.00
2019-04-13T16:12:44.882Z,77.40
2019-04-13T16:15:14.382Z,77.00
2019-04-13T16:17:44.453Z,77.20
2019-04-13T16:20:13.935Z,76.60
2019-04-13T16:22:43.066Z,77.00
2019-04-13T16:25:12.112Z,76.10
2019-04-13T16:27:59.769Z,76.00
2019-04-13T16:31:01.090Z,76.00
2019-04-13T16:33:50.941Z,76.60
2019-04-13T16:36:24.357Z,76.60
2019-04-13T16:39:00.711Z,76.00
2019-04-13T16:41:23.756Z,76.70
2019-04-13T16:43:59.097Z,76.40
2019-04-13T16:46:32.628Z,76.20
2019-04-13T16:49:36.094Z,76.20
2019-04-13T16:52:14.321Z,77.00
2019-04-13T16:55:00.025Z,75.70
2019-04-13T16:57:44.742Z,76.20
2019-04-13T17:00:24.857Z,76.00
2019-04-13T17:03:15.261Z,76.40
2019-04-13T17:05:44.577Z,76.20
2019-04-13T17:08:14.010Z,75.70
2019-04-13T17:10:44.151Z,76.50
2019-04-13T17:13:14.057Z,77.30
2019-04-13T17:15:44.231Z,76.70
2019-04-13T17:18:20.558Z,76.50
2019-04-13T17:21:02.106Z,76.70
2019-04-13T17:23:54.249Z,76.30
2019-04-13T17:26:29.327Z,76.50
2019-04-13T17:29:07.438Z,76.70
2019-04-13T17:31:55.407Z,76.20
2019-04-13T17:34:36.240Z,76.20
2019-04-13T17:37:07.003Z,76.20
2019-04-13T17:39:36.081Z,76.40
2019-04-13T17:42:36.968Z,76.70
2019-04-13T17:45:09.024Z,76.40
2019-04-13T17:47:55.918Z,75.90
2019-04-13T17:50:43.170Z,77.00
2019-04-13T17:53:30.967Z,77.00
2019-04-13T17:56:06.686Z,77.10
2019-04-13T17:58:52.622Z,76.60
2019-04-13T18:01:45.994Z,77.00
2019-04-13T18:04:33.235Z,77.20
2019-04-13T18:07:13.674Z,77.10
2019-04-13T18:09:57.945Z,78.00
2019-04-13T18:12:47.666Z,77.40
2019-04-13T18:15:18.160Z,78.00
2019-04-13T18:17:59.798Z,78.20
2019-04-13T18:20:29.939Z,78.70
2019-04-13T18:22:58.841Z,78.40
2019-04-13T18:25:35.477Z,78.70
2019-04-13T18:27:59.904Z,78.90
2019-04-13T18:30:33.465Z,78.90
2019-04-13T18:33:00.955Z,79.60
2019-04-13T18:35:31.130Z,78.90
2019-04-13T18:38:01.664Z,79.40
2019-04-13T18:40:32.174Z,79.60
2019-04-13T18:43:10.328Z,79.70
2019-04-13T18:45:36.528Z,79.70
2019-04-13T18:48:07.873Z,80.00
2019-04-13T18:50:38.986Z,80.00
2019-04-13T18:53:08.667Z,81.30
2019-04-13T18:55:38.809Z,80.00
2019-04-13T18:58:10.814Z,80.10
2019-04-13T19:00:42.262Z,80.60
2019-04-13T19:03:13.027Z,80.30
2019-04-13T19:05:43.166Z,81.20
2019-04-13T19:08:12.796Z,81.00
2019-04-13T19:10:42.521Z,81.40
2019-04-13T19:13:12.571Z,81.40
2019-04-13T19:15:42.523Z,81.80
2019-04-13T19:18:12.494Z,82.10
2019-04-13T19:20:42.121Z,82.40
2019-04-13T19:23:11.488Z,81.90
2019-04-13T19:25:41.182Z,82.40
2019-04-13T19:28:11.134Z,82.70
2019-04-13T19:30:41.078Z,83.00
2019-04-13T19:33:10.929Z,82.70
2019-04-13T19:35:40.975Z,83.30
2019-04-13T19:38:09.730Z,83.00
2019-04-13T19:40:38.586Z,83.90
2019-04-13T19:43:16.512Z,84.10
2019-04-13T19:45:41.562Z,84.00
2019-04-13T19:48:10.574Z,84.70
2019-04-13T19:50:39.339Z,85.00
2019-04-13T19:53:27.193Z,85.30
2019-04-13T19:55:55.942Z,85.30
2019-04-13T19:58:24.694Z,85.80
2019-04-13T20:00:55.941Z,85.70
2019-04-13T20:03:24.781Z,87.00
2019-04-13T20:05:53.825Z,88.30
2019-04-13T20:08:22.699Z,89.60
2019-04-13T20:10:51.518Z,89.90
2019-04-13T20:13:32.829Z,90.10
2019-04-13T20:15:53.065Z,90.70
2019-04-13T20:18:21.990Z,91.40
2019-04-13T20:20:51.166Z,91.50
2019-04-13T20:23:19.909Z,92.50
2019-04-13T20:25:48.657Z,92.30
2019-04-13T20:28:17.985Z,92.90
2019-04-13T20:30:47.792Z,92.50
2019-04-13T20:33:17.758Z,92.60
2019-04-13T20:35:57.779Z,92.60
2019-04-13T20:38:17.209Z,93.30
2019-04-13T20:41:15.065Z,93.60
2019-04-13T20:43:53.682Z,93.50
2019-04-13T20:46:15.209Z,93.90
2019-04-13T20:48:44.595Z,94.20
2019-04-13T20:51:13.529Z,94.70
2019-04-13T20:53:42.302Z,94.50
2019-04-13T20:56:12.075Z,94.70
2019-04-13T20:58:42.157Z,94.60
